Equality, AL (36026)

11:27 AM CDT on July 04, 2015 (GMT -0500)
Russell | | Change Station
CLOSE
Current Station
Airport
Location: Alexander City,
Elevation: 686 ft
Nearby Weather Stations

Elev 686 ft 32.91 °N, 85.96 °W | Updated 12 minutes ago

Partly Cloudy
Partly Cloudy
74 °F
Feels Like 74 °F
N
5
Wind Variable Wind from WNW

Today
High -- | Low -- °F
--% Chance of Precip.
Yesterday
High -- | Low -- °F
Precip. -- in
5:41 AM 7:56 PM
Waning Gibbous, 91% visible
Pressure 30.11 in
Visibility 10.0 miles
Clouds Clear
Dew Point 67 °F
Humidity 77%
Rainfall 1.03 in
Snow Depth Not available.
UV 11 out of 12
Pollen .50 out of 12
Air Quality Not available.
Flu Activity Not available.
METAR KALX 041615Z AUTO 30004KT 10SM CLR 24/19 A3011 RMK AO2 LTG DSNT SE T02350193

More Conditions Fewer Conditions

Pressure 30.11 in
Visibility 10.0 miles
Clouds Clear
Dew Point 67 °F
Humidity 77%
Rainfall 1.03 in
Snow Depth Not available.
UV 11 out of 12
Pollen .50 out of 12
Air Quality Not available.
Flu Activity Not available.
METAR KALX 041615Z AUTO 30004KT 10SM CLR 24/19 A3011 RMK AO2 LTG DSNT SE T02350193

More Conditions Fewer Conditions

10-Day Weather Forecast

×

Almanac

Astronomy

Jul. 04, 2015 Rise Set
Actual Time
Civil Twilight
Nautical Twilight
Astronomical Twilight
Moon
Length of Visible Light
Length of Day
Tomorrow will be .
, % of the Moon is Illuminated

Today's Extremes

State Highs State Lows

Community

WunderPhotos

Upload Photos

1,834,998 photos uploaded!

WunderBlogs® & News

Nearby

Air Quality

  Air Quality AQ Index Pollutant
Not available.

Snow Depth

Station Depth Elevation

Earthquake Activity

City Distance Mag. Time & Date
Minimum magnitude displayed is 2.5.

Coastal Water Temperatures

Place Temperature

Stations

Nearby Weather Stations

Station Location Temp. Windchill Dew Point Humidity Wind Precip. Elev Updated Type